createdAt,value
2023-06-21T00:00:12.914Z,2.47
2023-06-21T00:01:12.987Z,2.43
2023-06-21T00:02:13.066Z,2.43
2023-06-21T00:03:13.184Z,2.45
2023-06-21T00:04:13.194Z,2.43
2023-06-21T00:05:13.221Z,2.45
2023-06-21T00:06:13.271Z,2.43
2023-06-21T00:07:13.311Z,2.40
2023-06-21T00:08:13.334Z,2.46
2023-06-21T00:09:13.381Z,2.50
2023-06-21T00:10:13.437Z,2.47
2023-06-21T00:11:13.510Z,2.49
2023-06-21T00:12:13.604Z,2.49
2023-06-21T00:13:13.660Z,2.49
2023-06-21T00:14:13.756Z,2.47
2023-06-21T00:15:13.817Z,2.46
2023-06-21T00:16:13.833Z,2.46
2023-06-21T00:17:13.865Z,2.50
2023-06-21T00:18:13.897Z,2.50
2023-06-21T00:19:13.969Z,2.50
2023-06-21T00:20:13.994Z,2.54
2023-06-21T00:21:14.019Z,2.54
2023-06-21T00:22:14.020Z,2.54
2023-06-21T00:23:14.020Z,2.54
2023-06-21T00:24:14.032Z,2.57
2023-06-21T00:25:14.028Z,2.58
2023-06-21T00:26:14.023Z,2.56
2023-06-21T00:27:14.048Z,2.54
2023-06-21T00:28:14.044Z,2.54
2023-06-21T00:29:14.052Z,2.51
2023-06-21T00:30:14.052Z,2.51
2023-06-21T00:31:14.087Z,2.54
2023-06-21T00:32:14.084Z,2.52
2023-06-21T00:33:14.084Z,2.49
2023-06-21T00:34:14.089Z,2.51
2023-06-21T00:35:14.103Z,2.50
2023-06-21T00:36:14.103Z,2.51
2023-06-21T00:37:14.134Z,2.51
2023-06-21T00:38:14.112Z,2.52
2023-06-21T00:39:14.133Z,2.54
2023-06-21T00:40:14.136Z,2.56
2023-06-21T00:41:14.208Z,2.54
2023-06-21T00:42:14.173Z,2.55
2023-06-21T00:43:14.206Z,2.53
2023-06-21T00:44:14.281Z,2.54
2023-06-21T00:45:14.317Z,2.52
2023-06-21T00:46:14.444Z,2.58
2023-06-21T00:47:14.353Z,2.58
2023-06-21T00:48:14.362Z,2.58
2023-06-21T00:49:14.357Z,2.59
2023-06-21T00:50:14.358Z,2.58
2023-06-21T00:51:14.369Z,2.59
2023-06-21T00:52:14.392Z,2.58
2023-06-21T00:53:14.386Z,2.59
2023-06-21T00:54:14.398Z,2.63
2023-06-21T00:55:14.440Z,2.67
2023-06-21T00:56:14.433Z,2.77
2023-06-21T00:57:14.455Z,2.77
2023-06-21T00:58:14.453Z,2.81
2023-06-21T00:59:14.453Z,2.81
2023-06-21T01:00:14.484Z,2.82
2023-06-21T01:01:14.481Z,2.87
2023-06-21T01:02:14.513Z,2.90
2023-06-21T01:03:14.470Z,2.90
2023-06-21T01:04:14.472Z,2.92
2023-06-21T01:05:14.624Z,2.94
2023-06-21T01:06:14.515Z,3.00
2023-06-21T01:07:14.527Z,3.02
2023-06-21T01:08:14.532Z,3.04
2023-06-21T01:09:14.535Z,3.14
2023-06-21T01:10:14.554Z,3.14
2023-06-21T01:11:14.570Z,3.17
2023-06-21T01:12:14.614Z,3.19
2023-06-21T01:13:14.590Z,3.15
2023-06-21T01:14:14.589Z,3.15
2023-06-21T01:15:14.601Z,3.15
2023-06-21T01:16:14.609Z,3.18
2023-06-21T01:17:14.661Z,3.21
2023-06-21T01:18:14.648Z,3.28
2023-06-21T01:19:14.687Z,3.39
2023-06-21T01:20:14.671Z,3.44
2023-06-21T01:21:14.676Z,3.46
2023-06-21T01:22:14.686Z,3.47
2023-06-21T01:23:14.696Z,3.48
2023-06-21T01:24:14.723Z,3.46
2023-06-21T01:25:14.710Z,3.50
2023-06-21T01:26:14.716Z,3.52
2023-06-21T01:27:14.728Z,3.54
2023-06-21T01:28:14.726Z,3.54
2023-06-21T01:29:14.760Z,3.53
2023-06-21T01:30:14.758Z,3.57
2023-06-21T01:31:14.758Z,3.61
2023-06-21T01:32:14.756Z,3.59
2023-06-21T01:33:14.761Z,3.58
2023-06-21T01:34:14.767Z,3.62
2023-06-21T01:35:14.760Z,3.63
2023-06-21T01:36:14.765Z,3.58
2023-06-21T01:37:14.776Z,3.57
2023-06-21T01:38:14.779Z,3.59
2023-06-21T01:39:14.797Z,3.59
2023-06-21T01:40:14.809Z,3.59
2023-06-21T01:41:14.818Z,3.57
2023-06-21T01:42:14.840Z,3.60
2023-06-21T01:43:14.842Z,3.59
2023-06-21T01:44:14.861Z,3.64
2023-06-21T01:45:14.869Z,3.65
2023-06-21T01:46:14.902Z,3.68
2023-06-21T01:47:14.905Z,3.61
2023-06-21T01:48:14.883Z,3.67
2023-06-21T01:49:14.910Z,3.72
2023-06-21T01:50:14.952Z,3.65
2023-06-21T01:51:14.968Z,3.72
2023-06-21T01:52:14.954Z,3.68
2023-06-21T01:53:15.014Z,3.73
2023-06-21T01:54:14.988Z,3.73
2023-06-21T01:55:15.010Z,3.74
2023-06-21T01:56:15.017Z,3.70
2023-06-21T01:57:15.038Z,3.76
2023-06-21T01:58:15.071Z,3.76
2023-06-21T01:59:15.122Z,3.75
2023-06-21T02:00:15.144Z,3.78
2023-06-21T02:01:15.130Z,3.76
2023-06-21T02:02:15.157Z,3.78
2023-06-21T02:03:15.155Z,3.76
2023-06-21T02:04:15.184Z,3.72
2023-06-21T02:05:15.277Z,3.79
2023-06-21T02:06:15.233Z,3.75
2023-06-21T02:07:15.310Z,3.72
2023-06-21T02:08:15.305Z,3.67
2023-06-21T02:09:15.303Z,3.72
2023-06-21T02:10:15.327Z,3.66
2023-06-21T02:11:15.353Z,3.68
2023-06-21T02:12:15.380Z,3.59
2023-06-21T02:13:15.405Z,3.62
2023-06-21T02:14:15.437Z,3.60
2023-06-21T02:15:15.457Z,3.61
2023-06-21T02:16:15.476Z,3.59
2023-06-21T02:17:15.519Z,3.52
2023-06-21T02:18:15.551Z,3.51
2023-06-21T02:19:15.570Z,3.42
2023-06-21T02:20:15.614Z,3.49
2023-06-21T02:21:15.619Z,3.46
2023-06-21T02:22:15.660Z,3.39
2023-06-21T02:23:15.664Z,3.39
2023-06-21T02:24:15.699Z,3.35
2023-06-21T02:25:15.722Z,3.32
2023-06-21T02:26:15.789Z,3.32
2023-06-21T02:27:15.798Z,3.30
2023-06-21T02:28:15.802Z,3.32
2023-06-21T02:29:15.835Z,3.26
2023-06-21T02:30:15.890Z,3.27
2023-06-21T02:31:15.915Z,3.21
2023-06-21T02:32:15.944Z,3.16
2023-06-21T02:33:16.020Z,3.14
2023-06-21T02:34:15.991Z,3.04
2023-06-21T02:35:16.040Z,3.06
2023-06-21T02:36:16.063Z,3.03
2023-06-21T02:37:16.097Z,3.02
2023-06-21T02:38:16.136Z,3.04
2023-06-21T02:39:16.164Z,3.04
2023-06-21T02:40:16.192Z,2.98
2023-06-21T02:41:16.219Z,2.95
2023-06-21T02:42:16.267Z,2.93
2023-06-21T02:43:16.272Z,2.90
2023-06-21T02:44:16.311Z,2.86
2023-06-21T02:45:16.377Z,2.88
2023-06-21T02:46:16.383Z,2.86
2023-06-21T02:47:16.397Z,2.79
2023-06-21T02:48:16.456Z,2.81
2023-06-21T02:49:16.477Z,2.74
2023-06-21T02:50:16.493Z,2.79
2023-06-21T02:51:16.525Z,2.72
2023-06-21T02:52:16.591Z,2.74
2023-06-21T02:53:16.577Z,2.71
2023-06-21T02:54:16.611Z,2.71
2023-06-21T02:55:16.630Z,2.69
2023-06-21T02:56:16.668Z,2.63
2023-06-21T02:57:16.705Z,2.60
2023-06-21T02:58:16.732Z,2.63
2023-06-21T02:59:16.755Z,2.63
2023-06-21T03:00:16.786Z,2.60
2023-06-21T03:01:16.853Z,2.62
2023-06-21T03:02:16.858Z,2.62
2023-06-21T03:03:16.951Z,2.67
2023-06-21T03:04:16.915Z,2.69
2023-06-21T03:05:16.955Z,2.63
2023-06-21T03:06:16.974Z,2.65
2023-06-21T03:07:17.036Z,2.68
2023-06-21T03:08:17.065Z,2.64
2023-06-21T03:09:17.224Z,2.66
2023-06-21T03:10:17.151Z,2.65
2023-06-21T03:11:17.153Z,2.64
2023-06-21T03:12:17.194Z,2.62
2023-06-21T03:13:17.220Z,2.66
2023-06-21T03:14:17.240Z,2.66
2023-06-21T03:15:17.328Z,2.61
2023-06-21T03:16:17.319Z,2.65
2023-06-21T03:17:17.367Z,2.65
2023-06-21T03:18:17.399Z,2.65
2023-06-21T03:19:17.442Z,2.64
2023-06-21T03:20:17.468Z,2.63
2023-06-21T03:21:17.490Z,2.69
2023-06-21T03:22:17.529Z,2.62
2023-06-21T03:23:17.557Z,2.65
2023-06-21T03:24:17.661Z,2.65
2023-06-21T03:25:17.598Z,2.65
2023-06-21T03:26:17.632Z,2.66
2023-06-21T03:27:17.645Z,2.68
2023-06-21T03:28:17.639Z,2.68
2023-06-21T03:29:17.655Z,2.74
2023-06-21T03:30:17.675Z,2.71
2023-06-21T03:31:17.715Z,2.80
2023-06-21T03:32:17.713Z,2.75
2023-06-21T03:33:17.711Z,2.79
2023-06-21T03:34:17.730Z,2.82
2023-06-21T03:35:17.746Z,2.84
2023-06-21T03:36:17.760Z,2.90
2023-06-21T03:37:17.791Z,2.85
2023-06-21T03:38:17.781Z,2.86
2023-06-21T03:39:17.795Z,2.87
2023-06-21T03:40:17.816Z,2.87
2023-06-21T03:41:17.824Z,2.91
2023-06-21T03:42:17.826Z,2.92
2023-06-21T03:43:17.852Z,2.94
2023-06-21T03:44:17.879Z,2.96
2023-06-21T03:45:17.874Z,3.00
2023-06-21T03:46:17.933Z,2.99
2023-06-21T03:47:17.915Z,2.95
2023-06-21T03:48:18.100Z,2.98
2023-06-21T03:49:17.978Z,3.03
2023-06-21T03:50:18.018Z,2.99
2023-06-21T03:51:18.054Z,3.10
2023-06-21T03:52:18.110Z,3.11
2023-06-21T03:53:18.149Z,3.08
2023-06-21T03:54:18.186Z,3.21
2023-06-21T03:55:18.224Z,3.16
2023-06-21T03:56:18.260Z,3.20
2023-06-21T03:57:18.305Z,3.21
2023-06-21T03:58:18.340Z,3.24
2023-06-21T03:59:18.405Z,3.22
2023-06-21T04:00:18.466Z,3.18
2023-06-21T04:01:18.521Z,3.21
2023-06-21T04:02:18.482Z,3.21
2023-06-21T04:03:18.583Z,3.22
2023-06-21T04:04:18.488Z,3.24
2023-06-21T04:05:18.525Z,3.24
2023-06-21T04:06:18.514Z,3.31
2023-06-21T04:07:20.919Z,3.35
2023-06-21T04:08:18.551Z,3.30
2023-06-21T04:09:18.561Z,3.27
2023-06-21T04:10:18.597Z,3.26
2023-06-21T04:11:18.599Z,3.32
2023-06-21T04:12:18.631Z,3.25
2023-06-21T04:13:18.678Z,3.31
2023-06-21T04:14:18.637Z,3.23
2023-06-21T04:15:18.680Z,3.24
2023-06-21T04:16:18.676Z,3.20
2023-06-21T04:17:18.711Z,3.14
2023-06-21T04:18:18.708Z,3.17
2023-06-21T04:19:18.707Z,3.17
2023-06-21T04:20:18.742Z,3.16
2023-06-21T04:21:18.753Z,3.13
2023-06-21T04:22:18.792Z,3.22
2023-06-21T04:23:18.784Z,3.21
2023-06-21T04:24:18.884Z,3.17
2023-06-21T04:25:18.843Z,3.15
2023-06-21T04:26:18.865Z,3.17
2023-06-21T04:27:18.860Z,3.15
2023-06-21T04:28:18.897Z,3.16
2023-06-21T04:29:18.894Z,3.14
2023-06-21T04:30:18.943Z,3.22
2023-06-21T04:31:18.969Z,3.21
2023-06-21T04:32:18.979Z,3.22
2023-06-21T04:33:18.994Z,3.18
2023-06-21T04:34:19.018Z,3.25
2023-06-21T04:35:19.050Z,3.22
2023-06-21T04:36:19.041Z,3.20
2023-06-21T04:37:19.049Z,3.23
2023-06-21T04:38:19.069Z,3.22
2023-06-21T04:39:19.087Z,3.24
2023-06-21T04:40:19.831Z,3.25
2023-06-21T04:41:19.118Z,3.27
2023-06-21T04:42:19.136Z,3.24
2023-06-21T04:43:19.142Z,3.23
2023-06-21T04:44:19.163Z,3.27
2023-06-21T04:45:19.168Z,3.31
2023-06-21T04:46:19.461Z,3.30
2023-06-21T04:47:19.195Z,3.32
2023-06-21T04:48:19.220Z,3.34
2023-06-21T04:49:19.234Z,3.35
2023-06-21T04:50:21.428Z,3.36
2023-06-21T04:51:19.248Z,3.49
2023-06-21T04:52:19.275Z,3.43
2023-06-21T04:53:19.308Z,3.39
2023-06-21T04:54:19.366Z,3.47
2023-06-21T04:55:19.530Z,3.46
2023-06-21T04:56:19.349Z,3.43
2023-06-21T04:57:19.378Z,3.36
2023-06-21T04:58:19.387Z,3.42
2023-06-21T04:59:19.423Z,3.40
2023-06-21T05:00:19.417Z,3.38
2023-06-21T05:01:19.448Z,3.38
2023-06-21T05:02:19.475Z,3.33
2023-06-21T05:03:19.532Z,3.34
2023-06-21T05:04:19.507Z,3.33
2023-06-21T05:05:19.536Z,3.35
2023-06-21T05:06:19.534Z,3.39
2023-06-21T05:07:19.594Z,3.39
2023-06-21T05:08:19.574Z,3.43
2023-06-21T05:09:19.594Z,3.37
2023-06-21T05:10:19.611Z,3.36
2023-06-21T05:11:19.630Z,3.38
2023-06-21T05:12:19.651Z,3.36
2023-06-21T05:13:19.653Z,3.32
2023-06-21T05:14:19.674Z,3.35
2023-06-21T05:15:19.692Z,3.37
2023-06-21T05:16:19.718Z,3.32
2023-06-21T05:17:19.735Z,3.31
2023-06-21T05:18:19.742Z,3.29
2023-06-21T05:19:19.760Z,3.27
2023-06-21T05:20:19.781Z,3.36
2023-06-21T05:21:19.794Z,3.33
2023-06-21T05:22:19.818Z,3.30
2023-06-21T05:23:19.822Z,3.26
2023-06-21T05:24:19.887Z,3.29
2023-06-21T05:25:19.866Z,3.24
2023-06-21T05:26:19.869Z,3.20
2023-06-21T05:27:19.907Z,3.31
2023-06-21T05:28:19.900Z,3.36
2023-06-21T05:29:19.930Z,3.36
2023-06-21T05:30:19.932Z,3.34
2023-06-21T05:31:19.956Z,3.39
2023-06-21T05:32:20.039Z,3.45
2023-06-21T05:33:19.964Z,3.46
2023-06-21T05:34:19.985Z,3.46
2023-06-21T05:35:20.094Z,3.46
2023-06-21T05:36:20.041Z,3.51
2023-06-21T05:37:20.045Z,3.54
2023-06-21T05:38:20.090Z,4.21
2023-06-21T05:39:20.112Z,4.49
2023-06-21T05:40:20.125Z,5.05
2023-06-21T05:41:20.133Z,5.55
2023-06-21T05:42:20.156Z,5.99
2023-06-21T05:43:20.168Z,6.32
2023-06-21T05:44:20.247Z,7.15
2023-06-21T05:45:20.203Z,9.06
2023-06-21T05:46:20.331Z,10.17
2023-06-21T05:47:20.262Z,11.24
2023-06-21T05:48:20.248Z,11.28
2023-06-21T05:49:20.285Z,11.78
2023-06-21T05:50:20.395Z,13.29
2023-06-21T05:51:20.278Z,16.34
2023-06-21T05:52:20.316Z,19.78
2023-06-21T05:53:20.316Z,21.71
2023-06-21T05:54:20.325Z,25.81
2023-06-21T05:55:20.326Z,25.93
2023-06-21T05:56:20.353Z,26.39
2023-06-21T05:57:20.389Z,27.02
2023-06-21T05:58:20.389Z,28.03
2023-06-21T05:59:20.585Z,29.06
2023-06-21T06:00:20.442Z,26.69
2023-06-21T06:01:25.422Z,23.98
2023-06-21T06:02:21.541Z,24.01
2023-06-21T06:03:20.604Z,24.25
2023-06-21T06:04:20.659Z,25.03
2023-06-21T06:05:20.515Z,26.59
2023-06-21T06:06:20.768Z,29.14
2023-06-21T06:07:20.547Z,29.68
2023-06-21T06:08:20.584Z,28.83
2023-06-21T06:09:20.559Z,27.82
2023-06-21T06:10:20.579Z,29.17
2023-06-21T06:11:20.626Z,29.04
2023-06-21T06:12:20.706Z,28.69
2023-06-21T06:13:20.698Z,28.64
2023-06-21T06:14:20.884Z,29.39
2023-06-21T06:15:20.837Z,30.53
2023-06-21T06:16:20.972Z,30.61
2023-06-21T06:17:20.912Z,30.91
2023-06-21T06:18:20.902Z,31.85
2023-06-21T06:19:20.872Z,32.75
2023-06-21T06:20:20.901Z,33.44
2023-06-21T06:21:20.928Z,33.17
2023-06-21T06:22:20.928Z,34.98
2023-06-21T06:23:20.923Z,36.80
2023-06-21T06:24:20.985Z,37.20
2023-06-21T06:25:20.999Z,33.58
2023-06-21T06:26:21.241Z,36.89
2023-06-21T06:27:21.023Z,36.30
2023-06-21T06:28:21.096Z,37.00
2023-06-21T06:29:21.062Z,40.87
2023-06-21T06:30:21.052Z,40.49
2023-06-21T06:31:21.092Z,39.02
2023-06-21T06:32:21.156Z,40.58
2023-06-21T06:33:21.053Z,40.71
2023-06-21T06:34:21.060Z,41.63
2023-06-21T06:35:21.066Z,44.01
2023-06-21T06:36:21.102Z,47.27
2023-06-21T06:37:23.824Z,51.73
2023-06-21T06:38:22.101Z,41.01
2023-06-21T06:39:21.132Z,42.49
2023-06-21T06:40:21.110Z,37.97
2023-06-21T06:41:21.126Z,39.84
2023-06-21T06:42:21.203Z,23.55
2023-06-21T06:43:21.129Z,16.70
2023-06-21T06:44:21.165Z,15.22
2023-06-21T06:45:21.150Z,13.80
2023-06-21T06:46:21.283Z,12.07
2023-06-21T06:47:21.274Z,11.85
2023-06-21T06:48:21.308Z,5.66
2023-06-21T06:49:21.375Z,4.87
2023-06-21T06:50:21.436Z,4.95
2023-06-21T06:51:21.502Z,5.16
2023-06-21T06:52:21.672Z,5.63
2023-06-21T06:53:21.668Z,6.55
2023-06-21T06:54:21.713Z,7.69
2023-06-21T06:55:21.766Z,8.57
2023-06-21T06:56:21.859Z,9.69
2023-06-21T06:57:30.625Z,9.73
2023-06-21T06:58:22.947Z,9.78
2023-06-21T06:59:21.980Z,10.29
2023-06-21T07:00:21.847Z,11.69
2023-06-21T07:01:21.880Z,14.32
2023-06-21T07:02:21.926Z,20.32
2023-06-21T07:03:21.990Z,23.32
2023-06-21T07:04:21.983Z,24.25
2023-06-21T07:05:22.015Z,25.14
2023-06-21T07:06:21.880Z,27.79
2023-06-21T07:07:21.878Z,32.49
2023-06-21T07:08:21.946Z,37.83
2023-06-21T07:09:21.906Z,42.15
2023-06-21T07:10:21.911Z,45.84
2023-06-21T07:11:21.919Z,48.79
2023-06-21T07:12:21.948Z,53.51
2023-06-21T07:13:21.952Z,58.40
2023-06-21T07:14:21.947Z,58.82
2023-06-21T07:15:24.148Z,61.47
2023-06-21T07:16:21.944Z,61.68
2023-06-21T07:17:22.039Z,62.97
2023-06-21T07:18:22.011Z,65.72
2023-06-21T07:19:22.045Z,72.89
2023-06-21T07:20:21.996Z,85.38
2023-06-21T07:21:23.615Z,90.42
2023-06-21T07:22:21.973Z,90.66
2023-06-21T07:23:22.007Z,92.48
2023-06-21T07:24:21.972Z,98.15
2023-06-21T07:25:21.980Z,105.64
2023-06-21T07:26:25.300Z,121.62
2023-06-21T07:27:22.148Z,91.46
2023-06-21T07:28:21.980Z,94.87
2023-06-21T07:29:22.013Z,102.40
2023-06-21T07:30:21.995Z,114.89
2023-06-21T07:31:22.105Z,140.14
2023-06-21T07:32:22.013Z,151.94
2023-06-21T07:33:22.104Z,163.10
2023-06-21T07:34:21.996Z,166.63
2023-06-21T07:35:21.982Z,162.29
2023-06-21T07:36:22.048Z,160.75
2023-06-21T07:37:22.018Z,152.70
2023-06-21T07:38:21.993Z,146.08
2023-06-21T07:39:21.977Z,136.50
2023-06-21T07:40:21.960Z,117.38
2023-06-21T07:41:21.947Z,109.09
2023-06-21T07:42:21.964Z,102.31
2023-06-21T07:43:22.025Z,88.99
2023-06-21T07:44:21.948Z,79.88
2023-06-21T07:45:22.021Z,74.54
2023-06-21T07:46:22.049Z,65.67
2023-06-21T07:47:22.095Z,56.38
2023-06-21T07:48:22.038Z,47.66
2023-06-21T07:49:21.938Z,39.23
2023-06-21T07:50:23.116Z,27.02
2023-06-21T07:51:22.120Z,25.48
2023-06-21T07:52:22.041Z,23.44
2023-06-21T07:53:21.949Z,21.08
2023-06-21T07:54:21.942Z,19.25
2023-06-21T07:55:21.938Z,16.81
2023-06-21T07:56:21.956Z,14.39
2023-06-21T07:57:22.051Z,14.02
2023-06-21T07:58:21.944Z,13.17
2023-06-21T07:59:21.970Z,12.51
2023-06-21T08:00:21.946Z,11.05
2023-06-21T08:01:21.980Z,9.93
2023-06-21T08:02:22.104Z,8.50
2023-06-21T08:03:21.987Z,9.26
2023-06-21T08:04:21.962Z,9.34
2023-06-21T08:05:21.989Z,11.72
2023-06-21T08:06:21.958Z,13.39
2023-06-21T08:07:24.185Z,14.91
2023-06-21T08:08:21.941Z,16.38
2023-06-21T08:09:21.927Z,17.65
2023-06-21T08:10:21.942Z,17.71
2023-06-21T08:11:21.903Z,18.26
2023-06-21T08:12:21.896Z,19.92
2023-06-21T08:13:21.906Z,23.57
2023-06-21T08:14:21.903Z,28.98
2023-06-21T08:15:21.876Z,31.16
2023-06-21T08:16:21.878Z,30.40
2023-06-21T08:17:21.964Z,32.92
2023-06-21T08:18:21.923Z,33.11
2023-06-21T08:19:21.888Z,31.14
2023-06-21T08:20:21.913Z,30.17
2023-06-21T08:21:21.893Z,33.17
2023-06-21T08:22:21.893Z,34.36
2023-06-21T08:23:21.934Z,33.02
2023-06-21T08:24:21.951Z,30.24
2023-06-21T08:25:21.897Z,31.20
2023-06-21T08:26:21.906Z,30.29
2023-06-21T08:27:21.865Z,29.94
2023-06-21T08:28:21.906Z,31.80
2023-06-21T08:29:21.869Z,33.97
2023-06-21T08:30:21.886Z,32.95
2023-06-21T08:31:21.875Z,28.87
2023-06-21T08:32:21.904Z,25.14
2023-06-21T08:33:21.937Z,23.78
2023-06-21T08:34:22.002Z,22.14
2023-06-21T08:35:22.033Z,20.87
2023-06-21T08:36:22.114Z,16.91
2023-06-21T08:37:22.147Z,14.43
2023-06-21T08:38:28.268Z,12.54
2023-06-21T08:39:23.236Z,11.75
2023-06-21T08:40:22.186Z,9.71
2023-06-21T08:41:22.197Z,8.32
2023-06-21T08:42:22.184Z,6.10
2023-06-21T08:43:22.287Z,5.25
2023-06-21T08:44:22.221Z,4.94
2023-06-21T08:45:22.227Z,4.64
2023-06-21T08:46:22.264Z,4.47
2023-06-21T08:47:22.278Z,4.69
2023-06-21T08:48:22.207Z,4.72
2023-06-21T08:49:22.315Z,4.52
2023-06-21T08:50:22.351Z,4.46
2023-06-21T08:51:22.241Z,4.27
2023-06-21T08:52:22.206Z,3.60
2023-06-21T08:53:22.232Z,3.23
2023-06-21T08:54:22.202Z,3.22
2023-06-21T08:55:22.209Z,3.22
2023-06-21T08:56:22.216Z,3.17
2023-06-21T08:57:22.208Z,2.94
2023-06-21T08:58:22.213Z,2.83
2023-06-21T08:59:22.226Z,2.73
2023-06-21T09:00:22.325Z,2.77
2023-06-21T09:01:22.214Z,2.67
2023-06-21T09:02:22.308Z,2.29
2023-06-21T09:03:22.409Z,2.05
2023-06-21T09:04:22.419Z,2.01
2023-06-21T09:05:22.188Z,1.94
2023-06-21T09:06:22.198Z,1.91
2023-06-21T09:07:22.215Z,2.15
2023-06-21T09:08:22.194Z,1.99
2023-06-21T09:09:22.173Z,1.79
2023-06-21T09:10:22.194Z,1.67
2023-06-21T09:11:22.282Z,1.91
2023-06-21T09:12:22.168Z,1.77
2023-06-21T09:13:22.186Z,1.79
2023-06-21T09:14:22.264Z,1.71
2023-06-21T09:15:22.131Z,1.70
2023-06-21T09:16:22.234Z,1.87
2023-06-21T09:17:22.215Z,2.02
2023-06-21T09:18:22.143Z,1.94
2023-06-21T09:19:22.147Z,1.84
2023-06-21T09:20:22.176Z,1.73
2023-06-21T09:21:22.225Z,1.62
2023-06-21T09:22:22.187Z,1.79
2023-06-21T09:23:22.210Z,2.10
2023-06-21T09:24:22.206Z,1.99
2023-06-21T09:25:22.204Z,1.75
2023-06-21T09:26:22.231Z,1.61
2023-06-21T09:27:22.196Z,1.50
2023-06-21T09:28:22.219Z,1.54
2023-06-21T09:29:22.189Z,1.67
2023-06-21T09:30:35.985Z,1.57
2023-06-21T09:31:23.187Z,1.51
2023-06-21T09:32:22.254Z,1.39
2023-06-21T09:33:22.246Z,1.28
2023-06-21T09:34:22.155Z,1.37
2023-06-21T09:35:22.135Z,1.40
2023-06-21T09:36:22.187Z,1.36
2023-06-21T09:37:22.144Z,1.27
2023-06-21T09:38:22.161Z,1.14
2023-06-21T09:39:22.111Z,1.04
2023-06-21T09:40:22.109Z,1.02
2023-06-21T09:41:22.116Z,1.04
2023-06-21T09:42:22.152Z,1.04
2023-06-21T09:43:22.266Z,1.09
2023-06-21T09:44:22.125Z,1.11
2023-06-21T09:45:22.118Z,1.16
2023-06-21T09:46:22.088Z,1.25
2023-06-21T09:47:22.202Z,1.36
2023-06-21T09:48:22.249Z,1.46
2023-06-21T09:49:22.254Z,1.42
2023-06-21T09:50:22.102Z,1.31
2023-06-21T09:51:22.061Z,1.24
2023-06-21T09:52:22.059Z,1.34
2023-06-21T09:53:22.064Z,1.49
2023-06-21T09:54:22.060Z,1.59
2023-06-21T09:55:22.050Z,1.73
2023-06-21T09:56:22.024Z,2.38
2023-06-21T09:57:22.016Z,3.49
2023-06-21T09:58:22.058Z,4.34
2023-06-21T09:59:22.022Z,5.80
2023-06-21T10:00:22.039Z,7.16
2023-06-21T10:01:22.110Z,9.01
2023-06-21T10:02:22.160Z,11.18
2023-06-21T10:03:22.203Z,11.25
2023-06-21T10:04:22.128Z,11.59
2023-06-21T10:05:22.082Z,12.67
2023-06-21T10:06:22.081Z,15.23
2023-06-21T10:07:22.075Z,20.08
2023-06-21T10:08:22.100Z,22.58
2023-06-21T10:09:22.092Z,24.92
2023-06-21T10:10:22.047Z,26.87
2023-06-21T10:11:22.060Z,28.10
2023-06-21T10:12:22.062Z,27.93
2023-06-21T10:13:22.166Z,26.34
2023-06-21T10:14:22.083Z,26.34
2023-06-21T10:15:22.073Z,24.28
2023-06-21T10:16:22.027Z,24.07
2023-06-21T10:17:22.029Z,23.89
2023-06-21T10:18:22.059Z,22.36
2023-06-21T10:19:21.999Z,21.73
2023-06-21T10:20:21.980Z,20.87
2023-06-21T10:21:21.969Z,20.17
2023-06-21T10:22:22.053Z,18.05
2023-06-21T10:23:21.972Z,17.69
2023-06-21T10:24:22.008Z,17.45
2023-06-21T10:25:22.049Z,16.56
2023-06-21T10:26:22.088Z,16.53
2023-06-21T10:27:22.171Z,14.83
2023-06-21T10:28:22.221Z,15.18
2023-06-21T10:29:22.264Z,14.26
2023-06-21T10:30:22.259Z,14.71
2023-06-21T10:31:22.409Z,14.36
2023-06-21T10:32:22.378Z,14.88
2023-06-21T10:33:22.483Z,15.74
2023-06-21T10:34:22.432Z,15.88
2023-06-21T10:35:22.510Z,20.15
2023-06-21T10:36:22.540Z,18.46
2023-06-21T10:37:22.557Z,17.16
2023-06-21T10:38:22.570Z,17.18
2023-06-21T10:39:22.552Z,17.27
2023-06-21T10:40:22.559Z,17.66
2023-06-21T10:41:22.526Z,19.89
2023-06-21T10:42:22.517Z,25.13
2023-06-21T10:43:22.513Z,28.64
2023-06-21T10:44:24.751Z,28.70
2023-06-21T10:45:22.664Z,28.75
2023-06-21T10:46:22.669Z,27.46
2023-06-21T10:47:22.822Z,25.28
2023-06-21T10:48:22.664Z,23.59
2023-06-21T10:49:22.680Z,22.47
2023-06-21T10:50:22.747Z,19.78
2023-06-21T10:51:22.632Z,17.51
2023-06-21T10:52:22.645Z,15.26
2023-06-21T10:53:23.231Z,16.43
2023-06-21T10:54:22.675Z,17.18
2023-06-21T10:55:22.653Z,16.83
2023-06-21T10:56:22.612Z,13.87
2023-06-21T10:57:22.603Z,12.08
2023-06-21T10:58:22.606Z,11.24
2023-06-21T10:59:22.579Z,10.23
2023-06-21T11:00:22.575Z,9.97
2023-06-21T11:01:22.607Z,8.91
2023-06-21T11:02:22.623Z,8.57
2023-06-21T11:03:22.537Z,8.38
2023-06-21T11:04:22.555Z,8.76
2023-06-21T11:05:22.670Z,8.73
2023-06-21T11:06:22.547Z,8.79
2023-06-21T11:07:22.531Z,8.38
2023-06-21T11:08:22.522Z,8.31
2023-06-21T11:09:22.534Z,8.30
2023-06-21T11:10:22.493Z,8.47
2023-06-21T11:11:22.488Z,8.36
2023-06-21T11:12:22.485Z,7.52
2023-06-21T11:13:22.683Z,7.58
2023-06-21T11:14:22.478Z,7.63
2023-06-21T11:15:22.459Z,7.38
2023-06-21T11:16:22.466Z,6.51
2023-06-21T11:17:22.490Z,6.98
2023-06-21T11:18:22.505Z,5.91
2023-06-21T11:19:22.438Z,5.26
2023-06-21T11:20:22.429Z,5.33
2023-06-21T11:21:22.443Z,5.39
2023-06-21T11:22:22.419Z,5.32
2023-06-21T11:23:22.464Z,5.22
2023-06-21T11:24:22.539Z,5.22
2023-06-21T11:25:22.591Z,5.32
2023-06-21T11:26:22.825Z,5.56
2023-06-21T11:27:22.660Z,5.56
2023-06-21T11:28:22.806Z,5.75
2023-06-21T11:29:23.026Z,5.82
2023-06-21T11:30:22.844Z,5.97
2023-06-21T11:31:23.107Z,6.10
2023-06-21T11:32:22.940Z,5.99
2023-06-21T11:33:22.975Z,5.90
2023-06-21T11:34:23.051Z,5.80
2023-06-21T11:35:23.027Z,5.62
2023-06-21T11:36:22.984Z,5.52
2023-06-21T11:37:23.055Z,5.38
2023-06-21T11:38:22.996Z,5.24
2023-06-21T11:39:22.966Z,5.27
2023-06-21T11:40:22.963Z,5.11
2023-06-21T11:41:23.005Z,5.10
2023-06-21T11:42:22.925Z,4.74
2023-06-21T11:43:22.922Z,4.68
2023-06-21T11:44:23.001Z,4.69
2023-06-21T11:45:22.979Z,4.51
2023-06-21T11:46:23.037Z,4.25
2023-06-21T11:47:23.103Z,4.29
2023-06-21T11:48:23.112Z,4.10
2023-06-21T11:49:23.181Z,3.97
2023-06-21T11:50:23.248Z,3.91
2023-06-21T11:51:23.279Z,3.83
2023-06-21T11:52:23.306Z,3.63
2023-06-21T11:53:23.391Z,3.46
2023-06-21T11:54:23.427Z,3.46
2023-06-21T11:55:23.487Z,3.54
2023-06-21T11:56:23.535Z,3.46
2023-06-21T11:57:23.706Z,3.44
2023-06-21T11:58:23.666Z,3.43
2023-06-21T11:59:23.705Z,3.32
2023-06-21T12:00:23.805Z,3.35
2023-06-21T12:01:23.832Z,3.24
2023-06-21T12:02:23.915Z,3.13
2023-06-21T12:03:24.038Z,3.28
2023-06-21T12:04:24.183Z,3.24
2023-06-21T12:05:24.154Z,3.02
2023-06-21T12:06:24.069Z,3.02
2023-06-21T12:07:24.088Z,2.94
2023-06-21T12:08:24.073Z,2.90
2023-06-21T12:09:24.066Z,2.84
2023-06-21T12:10:24.028Z,2.97
2023-06-21T12:11:24.061Z,2.80
2023-06-21T12:12:24.081Z,2.84
2023-06-21T12:13:24.030Z,2.76
2023-06-21T12:14:24.050Z,2.66
2023-06-21T12:15:24.034Z,2.54
2023-06-21T12:16:24.206Z,2.47
2023-06-21T12:17:24.858Z,2.54
2023-06-21T12:18:24.219Z,2.33
2023-06-21T12:19:24.262Z,2.43
2023-06-21T12:20:24.248Z,2.41
2023-06-21T12:21:24.264Z,2.42
2023-06-21T12:22:24.251Z,2.31
2023-06-21T12:23:24.246Z,2.41
2023-06-21T12:24:24.223Z,2.22
2023-06-21T12:25:24.224Z,2.26
2023-06-21T12:26:24.228Z,2.26
2023-06-21T12:27:24.253Z,2.16
2023-06-21T12:28:24.240Z,2.13
2023-06-21T12:29:24.314Z,2.13
2023-06-21T12:30:24.352Z,1.94
2023-06-21T12:31:24.507Z,2.00
2023-06-21T12:32:24.549Z,1.88
2023-06-21T12:33:24.545Z,1.92
2023-06-21T12:34:24.691Z,1.88
2023-06-21T12:35:24.697Z,1.80
2023-06-21T12:36:24.774Z,1.85
2023-06-21T12:37:24.794Z,1.87
2023-06-21T12:38:24.792Z,1.85
2023-06-21T12:39:24.787Z,1.86
2023-06-21T12:40:24.827Z,1.92
2023-06-21T12:41:24.766Z,1.93
2023-06-21T12:42:24.744Z,1.95
2023-06-21T12:43:24.735Z,1.94
2023-06-21T12:44:24.729Z,1.97
2023-06-21T12:45:24.754Z,1.95
2023-06-21T12:46:24.741Z,1.88
2023-06-21T12:47:24.801Z,1.96
2023-06-21T12:48:24.815Z,1.98
2023-06-21T12:49:24.825Z,1.98
2023-06-21T12:50:24.967Z,1.90
2023-06-21T12:51:25.035Z,1.91
2023-06-21T12:52:24.782Z,2.00
2023-06-21T12:53:24.792Z,1.99
2023-06-21T12:54:25.018Z,1.96
2023-06-21T12:55:24.799Z,1.92
2023-06-21T12:56:26.017Z,1.94
2023-06-21T12:57:24.836Z,2.08
2023-06-21T12:58:24.836Z,2.11
2023-06-21T12:59:24.872Z,2.12
2023-06-21T13:00:24.957Z,2.17
2023-06-21T13:01:24.912Z,2.31
2023-06-21T13:02:25.057Z,2.28
2023-06-21T13:03:25.078Z,2.38
2023-06-21T13:04:25.120Z,2.38
2023-06-21T13:05:25.006Z,2.39
2023-06-21T13:06:25.004Z,2.44
2023-06-21T13:07:25.025Z,2.39
2023-06-21T13:08:25.064Z,2.42
2023-06-21T13:09:25.025Z,2.46
2023-06-21T13:10:25.016Z,2.54